createdAt,value
2022-09-22T00:00:57.304Z,65.47
2022-09-22T00:03:26.060Z,65.84
2022-09-22T00:06:01.567Z,66.04
2022-09-22T00:08:31.300Z,66.16
2022-09-22T00:11:01.950Z,65.88
2022-09-22T00:13:32.018Z,66.74
2022-09-22T00:16:01.553Z,66.57
2022-09-22T00:18:30.044Z,66.57
2022-09-22T00:21:06.590Z,66.71
2022-09-22T00:23:34.882Z,66.96
2022-09-22T00:26:05.510Z,67.12
2022-09-22T00:28:35.233Z,66.56
2022-09-22T00:31:06.028Z,67.73
2022-09-22T00:33:34.478Z,66.60
2022-09-22T00:36:03.946Z,66.74
2022-09-22T00:38:35.443Z,66.86
2022-09-22T00:41:08.895Z,66.39
2022-09-22T00:43:39.509Z,66.11
2022-09-22T00:46:10.879Z,66.81
2022-09-22T00:48:44.399Z,67.00
2022-09-22T00:51:21.748Z,66.77
2022-09-22T00:53:53.708Z,66.39
2022-09-22T00:56:22.283Z,66.23
2022-09-22T00:58:55.639Z,65.87
2022-09-22T01:01:24.061Z,65.69
2022-09-22T01:03:58.958Z,65.86
2022-09-22T01:06:27.808Z,66.33
2022-09-22T01:08:59.741Z,66.28
2022-09-22T01:11:29.737Z,66.14
2022-09-22T01:14:02.880Z,65.89
2022-09-22T01:16:43.497Z,65.93
2022-09-22T01:19:24.037Z,66.38
2022-09-22T01:21:52.685Z,66.49
2022-09-22T01:24:38.551Z,66.38
2022-09-22T01:27:11.070Z,66.44
2022-09-22T01:29:55.467Z,66.00
2022-09-22T01:32:31.643Z,65.53
2022-09-22T01:35:01.899Z,65.43
2022-09-22T01:37:34.178Z,65.09
2022-09-22T01:40:04.882Z,66.03
2022-09-22T01:42:38.144Z,66.67
2022-09-22T01:45:07.541Z,67.27
2022-09-22T01:47:39.183Z,67.05
2022-09-22T01:50:08.973Z,66.83
2022-09-22T01:52:37.277Z,66.52
2022-09-22T01:55:06.761Z,66.22
2022-09-22T01:57:40.036Z,66.42
2022-09-22T02:00:09.277Z,66.54
2022-09-22T02:02:43.872Z,66.64
2022-09-22T02:05:13.323Z,66.67
2022-09-22T02:07:42.449Z,67.10
2022-09-22T02:10:11.359Z,66.91
2022-09-22T02:12:43.570Z,67.02
2022-09-22T02:15:32.035Z,66.65
2022-09-22T02:18:10.295Z,66.48
2022-09-22T02:20:38.617Z,66.27
2022-09-22T02:23:08.818Z,66.73
2022-09-22T02:25:37.608Z,66.48
2022-09-22T02:28:12.376Z,67.55
2022-09-22T02:30:42.279Z,66.95
2022-09-22T02:33:15.078Z,67.92
2022-09-22T02:35:43.658Z,67.35
2022-09-22T02:38:15.472Z,67.35
2022-09-22T02:43:29.852Z,66.85
2022-09-22T02:46:07.189Z,66.33
2022-09-22T02:48:44.209Z,66.08
2022-09-22T02:51:13.212Z,66.66
2022-09-22T02:53:44.122Z,66.20
2022-09-22T02:56:12.754Z,67.00
2022-09-22T02:58:42.378Z,67.01
2022-09-22T03:01:10.732Z,67.32
2022-09-22T03:03:43.319Z,66.87
2022-09-22T03:06:11.586Z,66.55
2022-09-22T03:08:40.486Z,66.25
2022-09-22T03:11:11.226Z,66.74
2022-09-22T03:13:47.199Z,66.27
2022-09-22T03:16:15.549Z,66.17
2022-09-22T03:18:45.805Z,65.74
2022-09-22T03:21:14.573Z,65.80
2022-09-22T03:23:43.214Z,65.40
2022-09-22T03:26:17.125Z,66.42
2022-09-22T03:28:46.101Z,66.20
2022-09-22T03:31:17.700Z,67.27
2022-09-22T03:33:53.156Z,66.40
2022-09-22T03:36:21.864Z,66.68
2022-09-22T03:38:59.430Z,67.11
2022-09-22T03:41:28.098Z,67.21
2022-09-22T03:43:56.691Z,66.72
2022-09-22T03:46:25.113Z,67.56
2022-09-22T03:48:58.548Z,67.87
2022-09-22T03:51:27.100Z,67.94
2022-09-22T03:53:59.204Z,67.59
2022-09-22T03:56:27.512Z,67.21
2022-09-22T03:59:01.949Z,67.45
2022-09-22T04:01:30.287Z,68.31
2022-09-22T04:04:03.182Z,68.08
2022-09-22T04:06:31.510Z,67.53
2022-09-22T04:09:00.435Z,67.71
2022-09-22T04:11:28.782Z,67.00
2022-09-22T04:13:58.134Z,67.15
2022-09-22T04:16:30.277Z,67.82
2022-09-22T04:19:07.731Z,67.87
2022-09-22T04:21:36.330Z,67.92
2022-09-22T04:24:08.404Z,67.91
2022-09-22T04:26:36.961Z,67.49
2022-09-22T04:29:08.481Z,67.50
2022-09-22T04:31:37.091Z,67.17
2022-09-22T04:34:15.094Z,67.40
2022-09-22T04:36:44.123Z,67.54
2022-09-22T04:39:23.565Z,67.90
2022-09-22T04:41:59.873Z,67.94
2022-09-22T04:44:34.814Z,68.04
2022-09-22T04:47:04.059Z,68.69
2022-09-22T04:49:34.811Z,68.60
2022-09-22T04:52:03.440Z,68.65
2022-09-22T04:54:37.365Z,68.45
2022-09-22T04:57:05.757Z,68.17
2022-09-22T04:59:38.379Z,67.96
2022-09-22T05:02:07.040Z,68.35
2022-09-22T05:04:41.985Z,68.55
2022-09-22T05:07:11.632Z,68.39
2022-09-22T05:09:41.206Z,68.78
2022-09-22T05:12:09.561Z,68.68
2022-09-22T05:14:38.847Z,69.11
2022-09-22T05:17:09.902Z,68.31
2022-09-22T05:19:46.647Z,68.66
2022-09-22T05:22:16.607Z,68.34
2022-09-22T05:24:47.978Z,67.96
2022-09-22T05:27:16.569Z,69.00
2022-09-22T05:29:48.130Z,68.67
2022-09-22T05:32:16.712Z,69.38
2022-09-22T05:34:55.537Z,69.03
2022-09-22T05:37:32.961Z,68.77
2022-09-22T05:40:01.277Z,68.90
2022-09-22T05:42:33.422Z,69.57
2022-09-22T05:45:01.717Z,69.31
2022-09-22T05:47:33.439Z,69.33
2022-09-22T05:50:01.752Z,69.54
2022-09-22T05:52:38.066Z,67.84
2022-09-22T05:55:06.873Z,67.77
2022-09-22T05:57:38.600Z,69.35
2022-09-22T06:00:07.709Z,69.42
2022-09-22T06:02:51.027Z,69.02
2022-09-22T06:05:20.196Z,69.19
2022-09-22T06:07:50.263Z,69.11
2022-09-22T06:10:22.154Z,68.30
2022-09-22T06:12:50.712Z,68.40
2022-09-22T06:15:19.850Z,67.96
2022-09-22T06:17:52.318Z,67.59
2022-09-22T06:20:24.635Z,67.87
2022-09-22T06:22:55.060Z,68.21
2022-09-22T06:25:28.118Z,68.31
2022-09-22T06:28:01.930Z,67.59
2022-09-22T06:30:31.384Z,66.48
2022-09-22T06:32:59.845Z,67.16
2022-09-22T06:35:31.175Z,66.42
2022-09-22T06:38:01.132Z,66.36
2022-09-22T06:40:32.318Z,66.44
2022-09-22T06:43:04.636Z,66.86
2022-09-22T06:45:39.687Z,66.14
2022-09-22T06:48:10.347Z,66.21
2022-09-22T06:50:41.385Z,66.61
2022-09-22T06:53:13.825Z,66.91
2022-09-22T06:55:43.985Z,66.59
2022-09-22T06:58:17.496Z,65.60
2022-09-22T07:00:46.077Z,65.55
2022-09-22T07:03:20.708Z,65.43
2022-09-22T07:06:01.001Z,66.06
2022-09-22T07:08:31.519Z,66.15
2022-09-22T07:11:02.589Z,65.18
2022-09-22T07:13:31.875Z,63.73
2022-09-22T07:16:01.410Z,63.39
2022-09-22T07:18:30.150Z,64.18
2022-09-22T07:21:04.169Z,63.77
2022-09-22T07:23:35.694Z,62.87
2022-09-22T07:26:09.224Z,63.15
2022-09-22T07:28:37.910Z,64.56
2022-09-22T07:31:08.322Z,64.46
2022-09-22T07:33:36.893Z,62.23
2022-09-22T07:36:09.944Z,62.58
2022-09-22T07:38:40.120Z,62.92
2022-09-22T07:41:12.093Z,63.06
2022-09-22T07:43:40.760Z,62.11
2022-09-22T07:46:10.281Z,61.36
2022-09-22T07:48:42.579Z,60.55
2022-09-22T07:51:18.347Z,61.52
2022-09-22T07:54:07.368Z,61.62
2022-09-22T07:56:36.931Z,61.59
2022-09-22T07:59:10.722Z,61.77
2022-09-22T08:01:42.106Z,61.58
2022-09-22T08:04:16.942Z,61.24
2022-09-22T08:06:48.762Z,61.27
2022-09-22T08:09:29.676Z,61.31
2022-09-22T08:12:00.081Z,61.64
2022-09-22T08:14:32.280Z,60.61
2022-09-22T08:17:01.522Z,60.21
2022-09-22T08:19:30.482Z,58.72
2022-09-22T08:22:00.625Z,58.04
2022-09-22T08:24:30.970Z,59.55
2022-09-22T08:26:59.564Z,58.59
2022-09-22T08:29:28.653Z,57.86
2022-09-22T08:31:57.121Z,58.16
2022-09-22T08:34:26.336Z,58.61
2022-09-22T08:36:56.062Z,58.01
2022-09-22T08:39:26.773Z,57.89
2022-09-22T08:42:08.407Z,55.56
2022-09-22T08:44:39.866Z,56.93
2022-09-22T08:47:11.386Z,56.44
2022-09-22T08:50:06.359Z,56.22
2022-09-22T08:52:42.790Z,55.73
2022-09-22T08:55:23.092Z,54.40
2022-09-22T08:57:57.620Z,54.68
2022-09-22T09:00:29.455Z,54.61
2022-09-22T09:03:04.421Z,52.78
2022-09-22T09:05:48.728Z,51.92
2022-09-22T09:08:32.450Z,51.55
2022-09-22T09:11:05.851Z,49.71
2022-09-22T09:13:51.680Z,48.75
2022-09-22T09:16:25.760Z,49.81
2022-09-22T09:18:57.385Z,49.22
2022-09-22T09:21:25.840Z,49.01
2022-09-22T09:26:51.187Z,46.73
2022-09-22T09:29:27.851Z,46.72
2022-09-22T09:31:56.380Z,44.41
2022-09-22T09:34:31.611Z,45.96
2022-09-22T09:37:14.880Z,44.68
2022-09-22T09:39:47.567Z,46.01
2022-09-22T09:42:17.954Z,45.32
2022-09-22T09:44:53.454Z,44.81
2022-09-22T09:47:32.554Z,44.11
2022-09-22T09:50:01.130Z,45.53
2022-09-22T09:52:31.650Z,44.11
2022-09-22T09:55:00.031Z,44.89
2022-09-22T09:57:35.586Z,45.32
2022-09-22T10:00:34.445Z,46.47
2022-09-22T10:03:14.320Z,44.20
2022-09-22T10:05:43.518Z,45.11
2022-09-22T10:08:26.039Z,46.32
2022-09-22T10:10:56.764Z,44.50
2022-09-22T10:13:30.182Z,44.14
2022-09-22T10:16:16.579Z,44.38
2022-09-22T10:18:51.957Z,44.05
2022-09-22T10:21:21.019Z,44.37
2022-09-22T10:23:50.913Z,44.94
2022-09-22T10:26:23.168Z,45.64
2022-09-22T10:29:15.033Z,44.67
2022-09-22T10:31:43.921Z,43.66
2022-09-22T10:34:28.559Z,44.99
2022-09-22T10:36:59.548Z,43.63
2022-09-22T10:39:31.029Z,43.16
2022-09-22T10:42:02.712Z,43.02
2022-09-22T10:44:40.369Z,42.12
2022-09-22T10:47:23.601Z,44.66
2022-09-22T10:50:09.933Z,43.33
2022-09-22T10:52:41.407Z,41.65
2022-09-22T10:55:20.750Z,40.88
2022-09-22T10:57:59.078Z,40.47
2022-09-22T11:00:35.358Z,40.12
2022-09-22T11:03:25.446Z,40.66
2022-09-22T11:06:23.812Z,39.46
2022-09-22T11:09:11.018Z,39.91
2022-09-22T11:11:57.248Z,40.66
2022-09-22T11:14:29.180Z,40.80
2022-09-22T11:17:13.056Z,40.17
2022-09-22T11:20:02.441Z,40.23
2022-09-22T11:22:37.587Z,40.01
2022-09-22T11:25:08.832Z,40.66
2022-09-22T11:27:43.119Z,40.37
2022-09-22T11:30:22.933Z,41.19
2022-09-22T11:33:03.272Z,38.99
2022-09-22T11:35:34.800Z,40.25
2022-09-22T11:38:18.253Z,39.03
2022-09-22T11:40:53.366Z,38.93
2022-09-22T11:43:27.462Z,38.04
2022-09-22T11:45:57.478Z,37.76
2022-09-22T11:48:29.292Z,38.12
2022-09-22T11:51:11.140Z,37.13
2022-09-22T11:53:45.106Z,38.64
2022-09-22T11:56:38.288Z,38.70
2022-09-22T11:59:10.171Z,38.08
2022-09-22T12:01:40.281Z,39.51
2022-09-22T12:06:49.436Z,39.88
2022-09-22T12:09:23.238Z,40.06
2022-09-22T12:11:51.576Z,41.69
2022-09-22T12:14:22.969Z,41.28
2022-09-22T12:16:51.732Z,42.25
2022-09-22T12:19:24.406Z,42.83
2022-09-22T12:21:53.856Z,43.35
2022-09-22T12:24:26.065Z,42.75
2022-09-22T12:26:54.378Z,43.30
2022-09-22T12:29:25.933Z,44.94
2022-09-22T12:31:55.444Z,46.27
2022-09-22T12:34:26.655Z,46.54
2022-09-22T12:36:55.818Z,45.48
2022-09-22T12:39:34.288Z,46.42
2022-09-22T12:42:13.464Z,46.73
2022-09-22T12:44:44.490Z,46.68
2022-09-22T12:47:17.583Z,46.49
2022-09-22T12:49:54.073Z,45.97
2022-09-22T12:52:38.209Z,47.58
2022-09-22T12:55:22.840Z,47.85
2022-09-22T12:57:51.543Z,47.34
2022-09-22T13:00:27.877Z,48.19
2022-09-22T13:03:05.131Z,48.34
2022-09-22T13:05:34.846Z,47.52
2022-09-22T13:08:04.030Z,48.45
2022-09-22T13:10:52.548Z,47.56
2022-09-22T13:13:22.818Z,47.67
2022-09-22T13:15:56.967Z,47.84
2022-09-22T13:18:32.522Z,48.13
2022-09-22T13:21:01.866Z,48.47
2022-09-22T13:23:34.494Z,48.98
2022-09-22T13:26:09.453Z,49.29
2022-09-22T13:28:40.879Z,49.49
2022-09-22T13:31:17.314Z,49.57
2022-09-22T13:33:45.923Z,49.09
2022-09-22T13:36:20.929Z,50.35
2022-09-22T13:38:51.788Z,50.72
2022-09-22T13:41:24.978Z,49.83
2022-09-22T13:43:54.951Z,48.04
2022-09-22T13:46:24.548Z,47.41
2022-09-22T13:48:53.143Z,46.83
2022-09-22T13:51:21.903Z,46.36
2022-09-22T13:53:50.701Z,46.54
2022-09-22T13:56:23.493Z,46.57
2022-09-22T13:58:55.559Z,44.89
2022-09-22T14:01:26.313Z,43.26
2022-09-22T14:03:55.265Z,41.16
2022-09-22T14:06:25.199Z,41.59
2022-09-22T14:08:53.523Z,40.71
2022-09-22T14:11:31.751Z,41.74
2022-09-22T14:14:15.310Z,41.33
2022-09-22T14:16:52.299Z,40.37
2022-09-22T14:19:21.389Z,38.58
2022-09-22T14:21:51.666Z,38.56
2022-09-22T14:24:20.245Z,37.56
2022-09-22T14:27:00.208Z,37.34
2022-09-22T14:29:35.919Z,37.53
2022-09-22T14:32:12.707Z,37.89
2022-09-22T14:34:45.888Z,38.39
2022-09-22T14:37:20.218Z,39.20
2022-09-22T14:39:50.770Z,39.20
2022-09-22T14:42:21.056Z,40.58
2022-09-22T14:44:50.673Z,40.72
2022-09-22T14:47:28.061Z,40.69
2022-09-22T14:50:10.641Z,40.59
2022-09-22T14:52:41.798Z,38.57
2022-09-22T14:55:16.981Z,38.35
2022-09-22T14:57:50.485Z,38.61
2022-09-22T15:00:37.228Z,37.01
2022-09-22T15:03:07.873Z,38.18
2022-09-22T15:05:40.469Z,39.84
2022-09-22T15:08:13.675Z,41.08
2022-09-22T15:10:42.260Z,41.44
2022-09-22T15:13:20.423Z,42.31
2022-09-22T15:15:49.412Z,42.01
2022-09-22T15:18:19.552Z,43.33
2022-09-22T15:20:48.463Z,43.68
2022-09-22T15:23:19.003Z,43.25
2022-09-22T15:25:47.484Z,48.52
2022-09-22T15:28:27.063Z,56.04
2022-09-22T15:31:04.349Z,59.85
2022-09-22T15:33:34.111Z,61.50
2022-09-22T15:36:04.014Z,59.58
2022-09-22T15:38:32.696Z,61.25
2022-09-22T15:41:02.918Z,63.52
2022-09-22T15:43:34.329Z,63.14
2022-09-22T15:46:06.288Z,62.43
2022-09-22T15:48:37.454Z,62.47
2022-09-22T15:51:07.816Z,64.38
2022-09-22T15:53:36.393Z,64.73
2022-09-22T15:56:06.313Z,64.07
2022-09-22T15:58:38.168Z,64.09
2022-09-22T16:01:08.243Z,63.42
2022-09-22T16:03:41.622Z,64.70
2022-09-22T16:06:15.235Z,65.25
2022-09-22T16:08:46.211Z,65.17
2022-09-22T16:11:16.766Z,66.29
2022-09-22T16:13:45.595Z,66.66
2022-09-22T16:16:18.302Z,67.44
2022-09-22T16:18:48.300Z,66.71
2022-09-22T16:21:18.567Z,67.55
2022-09-22T16:23:47.144Z,66.73
2022-09-22T16:26:17.429Z,66.76
2022-09-22T16:28:45.715Z,67.37
2022-09-22T16:31:16.600Z,66.74
2022-09-22T16:33:46.240Z,66.61
2022-09-22T16:36:23.931Z,66.87
2022-09-22T16:38:52.221Z,66.10
2022-09-22T16:41:21.993Z,65.02
2022-09-22T16:43:50.317Z,64.90
2022-09-22T16:46:28.534Z,65.49
2022-09-22T16:49:12.411Z,65.99
2022-09-22T16:51:49.858Z,65.70
2022-09-22T16:54:19.501Z,65.48
2022-09-22T16:56:50.089Z,66.52
2022-09-22T16:59:19.256Z,66.56
2022-09-22T17:01:51.083Z,67.02
2022-09-22T17:04:19.883Z,67.17
2022-09-22T17:06:57.494Z,67.26
2022-09-22T17:09:26.087Z,68.32
2022-09-22T17:11:57.920Z,68.41
2022-09-22T17:14:37.627Z,67.80
2022-09-22T17:17:07.506Z,67.32
2022-09-22T17:19:36.644Z,67.44
2022-09-22T17:22:06.587Z,66.69
2022-09-22T17:24:35.167Z,67.25
2022-09-22T17:27:06.580Z,67.22
2022-09-22T17:29:36.076Z,67.15
2022-09-22T17:32:09.011Z,66.57
2022-09-22T17:34:39.448Z,66.68
2022-09-22T17:37:14.193Z,66.40
2022-09-22T17:39:46.933Z,66.99
2022-09-22T17:42:16.459Z,66.33
2022-09-22T17:44:45.860Z,67.25
2022-09-22T17:47:44.114Z,67.09
2022-09-22T17:50:35.160Z,67.12
2022-09-22T17:53:22.593Z,67.42
2022-09-22T17:55:51.897Z,67.39
2022-09-22T17:58:22.990Z,67.49
2022-09-22T18:00:51.790Z,67.40
2022-09-22T18:03:27.958Z,67.42
2022-09-22T18:06:03.962Z,67.92
2022-09-22T18:08:41.739Z,67.64
2022-09-22T18:11:12.532Z,67.51
2022-09-22T18:13:43.406Z,67.25
2022-09-22T18:16:28.521Z,67.14
2022-09-22T18:18:57.158Z,67.15
2022-09-22T18:21:26.877Z,66.91
2022-09-22T18:23:56.601Z,67.56
2022-09-22T18:26:31.728Z,67.84
2022-09-22T18:29:00.090Z,66.22
2022-09-22T18:31:30.253Z,64.37
2022-09-22T18:33:58.796Z,65.14
2022-09-22T18:36:32.213Z,65.15
2022-09-22T18:39:02.395Z,65.16
2022-09-22T18:41:32.452Z,62.08
2022-09-22T18:44:01.825Z,63.13
2022-09-22T18:46:30.727Z,64.62
2022-09-22T18:49:05.960Z,64.76
2022-09-22T18:51:35.285Z,64.78
2022-09-22T18:54:07.983Z,65.21
2022-09-22T18:56:39.534Z,65.53
2022-09-22T18:59:10.647Z,65.64
2022-09-22T19:01:41.454Z,65.40
2022-09-22T19:04:15.743Z,65.28
2022-09-22T19:07:11.106Z,65.31
2022-09-22T19:09:44.449Z,65.45
2022-09-22T19:12:12.872Z,65.24
2022-09-22T19:14:50.077Z,65.54
2022-09-22T19:17:19.825Z,65.05
2022-09-22T19:19:49.963Z,65.52
2022-09-22T19:22:18.299Z,65.89
2022-09-22T19:24:49.136Z,65.10
2022-09-22T19:27:19.252Z,65.38
2022-09-22T19:29:49.323Z,65.53
2022-09-22T19:32:19.846Z,65.07
2022-09-22T19:34:52.640Z,65.62
2022-09-22T19:37:21.415Z,65.52
2022-09-22T19:39:56.400Z,65.54
2022-09-22T19:42:26.613Z,65.13
2022-09-22T19:44:55.335Z,65.26
2022-09-22T19:47:23.846Z,65.47
2022-09-22T19:49:55.044Z,65.67
2022-09-22T19:52:23.888Z,65.27
2022-09-22T19:55:00.542Z,65.46
2022-09-22T19:57:30.921Z,65.00
2022-09-22T20:00:00.487Z,65.27
2022-09-22T20:02:28.798Z,65.31
2022-09-22T20:04:58.302Z,65.01
2022-09-22T20:07:28.479Z,65.08
2022-09-22T20:10:03.394Z,64.88
2022-09-22T20:12:33.069Z,64.51
2022-09-22T20:15:03.791Z,64.19
2022-09-22T20:17:32.155Z,64.31
2022-09-22T20:20:05.604Z,64.62
2022-09-22T20:22:35.238Z,64.55
2022-09-22T20:25:07.940Z,64.70
2022-09-22T20:27:37.950Z,64.23
2022-09-22T20:30:09.820Z,64.04
2022-09-22T20:32:38.445Z,64.37
2022-09-22T20:35:10.830Z,64.25
2022-09-22T20:37:41.002Z,63.95
2022-09-22T20:40:12.329Z,64.13
2022-09-22T20:42:42.318Z,64.11
2022-09-22T20:45:16.105Z,63.97
2022-09-22T20:47:44.665Z,63.56
2022-09-22T20:50:14.825Z,63.68
2022-09-22T20:52:43.529Z,62.98
2022-09-22T20:55:12.809Z,63.01
2022-09-22T20:57:43.206Z,63.40
2022-09-22T21:00:18.679Z,63.47
2022-09-22T21:02:47.439Z,63.76
2022-09-22T21:05:16.718Z,63.10
2022-09-22T21:07:45.028Z,63.58
2022-09-22T21:10:30.704Z,63.74
2022-09-22T21:13:04.032Z,63.83
2022-09-22T21:15:34.899Z,64.08
2022-09-22T21:18:03.579Z,64.93
2022-09-22T21:20:32.043Z,63.76
2022-09-22T21:23:03.994Z,63.34
2022-09-22T21:25:32.777Z,63.20
2022-09-22T21:28:07.459Z,63.15
2022-09-22T21:30:36.089Z,62.50
2022-09-22T21:33:12.755Z,61.48
2022-09-22T21:35:41.719Z,62.45
2022-09-22T21:38:16.017Z,62.35
2022-09-22T21:40:52.101Z,61.84
2022-09-22T21:43:21.805Z,61.72
2022-09-22T21:45:55.596Z,61.85
2022-09-22T21:48:23.942Z,62.58
2022-09-22T21:50:56.165Z,63.00
2022-09-22T21:53:24.629Z,62.86
2022-09-22T21:55:59.995Z,62.62
2022-09-22T21:58:30.394Z,63.27
2022-09-22T22:01:06.017Z,63.18
2022-09-22T22:03:42.323Z,63.25
2022-09-22T22:06:12.173Z,63.58
2022-09-22T22:08:41.466Z,63.22
2022-09-22T22:11:10.619Z,64.07
2022-09-22T22:13:48.286Z,63.22
2022-09-22T22:16:21.273Z,63.22
2022-09-22T22:18:51.180Z,63.47
2022-09-22T22:21:25.178Z,63.77
2022-09-22T22:23:53.957Z,63.32
2022-09-22T22:26:28.307Z,63.38
2022-09-22T22:28:57.957Z,63.28
2022-09-22T22:31:26.864Z,63.85
2022-09-22T22:33:55.373Z,63.24
2022-09-22T22:36:25.131Z,63.26
2022-09-22T22:38:58.387Z,63.54
2022-09-22T22:41:30.826Z,63.44
2022-09-22T22:44:01.844Z,64.04
2022-09-22T22:46:32.974Z,63.37
2022-09-22T22:49:01.705Z,63.11
2022-09-22T22:51:36.777Z,63.19
2022-09-22T22:54:05.710Z,63.63
2022-09-22T22:56:34.178Z,63.66
2022-09-22T22:59:03.788Z,63.56
2022-09-22T23:01:38.181Z,63.43
2022-09-22T23:04:07.312Z,63.29
2022-09-22T23:06:38.882Z,63.44
2022-09-22T23:09:07.658Z,63.25
2022-09-22T23:11:44.002Z,63.47
2022-09-22T23:14:19.527Z,63.47
2022-09-22T23:16:49.581Z,63.76
2022-09-22T23:19:25.083Z,63.83
2022-09-22T23:21:54.915Z,64.10
2022-09-22T23:24:23.850Z,64.07
2022-09-22T23:26:52.165Z,63.90
2022-09-22T23:29:29.658Z,63.94
2022-09-22T23:31:57.894Z,63.91
2022-09-22T23:34:29.497Z,63.76
2022-09-22T23:36:57.748Z,63.58
2022-09-22T23:39:27.189Z,63.78
2022-09-22T23:41:55.497Z,63.70
2022-09-22T23:44:34.319Z,63.73
2022-09-22T23:47:04.074Z,63.65
2022-09-22T23:49:36.909Z,63.77
2022-09-22T23:52:05.489Z,63.74
2022-09-22T23:54:38.303Z,63.67
2022-09-22T23:57:06.819Z,63.42
2022-09-22T23:59:38.440Z,63.44
